createdAt,value
2019-02-06T00:00:58.620Z,11.80
2019-02-06T00:03:30.276Z,11.90
2019-02-06T00:06:01.939Z,11.13
2019-02-06T00:08:33.662Z,13.27
2019-02-06T00:11:05.316Z,13.73
2019-02-06T00:13:37.284Z,14.20
2019-02-06T00:16:08.953Z,12.00
2019-02-06T00:18:40.641Z,11.00
2019-02-06T00:21:12.454Z,12.43
2019-02-06T00:23:44.078Z,12.63
2019-02-06T00:26:16.552Z,11.37
2019-02-06T00:28:48.632Z,11.47
2019-02-06T00:31:21.452Z,12.50
2019-02-06T00:33:53.177Z,11.70
2019-02-06T00:36:24.774Z,10.93
2019-02-06T00:38:56.704Z,12.63
2019-02-06T00:41:28.457Z,10.50
2019-02-06T00:44:00.213Z,11.70
2019-02-06T00:46:32.189Z,12.03
2019-02-06T00:49:03.792Z,8.77
2019-02-06T00:51:35.598Z,11.63
2019-02-06T00:54:07.199Z,9.90
2019-02-06T00:56:38.960Z,10.83
2019-02-06T00:59:10.868Z,10.90
2019-02-06T01:01:42.438Z,11.13
2019-02-06T01:04:14.385Z,10.90
2019-02-06T01:06:45.985Z,10.77
2019-02-06T01:09:17.550Z,9.97
2019-02-06T01:11:49.196Z,10.20
2019-02-06T01:14:21.333Z,10.07
2019-02-06T01:16:53.249Z,9.33
2019-02-06T01:19:24.905Z,9.33
2019-02-06T01:21:56.553Z,10.87
2019-02-06T01:24:28.388Z,10.57
2019-02-06T01:27:00.104Z,11.33
2019-02-06T01:29:32.532Z,9.03
2019-02-06T01:32:04.344Z,8.57
2019-02-06T01:34:36.071Z,10.57
2019-02-06T01:37:07.839Z,8.87
2019-02-06T01:39:39.480Z,8.97
2019-02-06T01:42:11.450Z,9.17
2019-02-06T01:44:44.021Z,9.50
2019-02-06T01:47:16.252Z,8.90
2019-02-06T01:49:47.844Z,9.40
2019-02-06T01:52:19.433Z,11.07
2019-02-06T01:54:51.102Z,9.53
2019-02-06T01:57:22.770Z,8.97
2019-02-06T01:59:55.003Z,9.63
2019-02-06T02:02:26.666Z,9.93
2019-02-06T02:05:00.343Z,11.40
2019-02-06T02:07:31.526Z,9.43
2019-02-06T02:10:04.896Z,10.70
2019-02-06T02:12:36.487Z,8.90
2019-02-06T02:15:14.866Z,8.63
2019-02-06T02:17:46.465Z,9.67
2019-02-06T02:20:22.072Z,9.73
2019-02-06T02:22:53.698Z,9.03
2019-02-06T02:25:25.374Z,10.57
2019-02-06T02:27:56.963Z,8.53
2019-02-06T02:30:39.624Z,8.53
2019-02-06T02:33:11.265Z,9.20
2019-02-06T02:35:42.839Z,9.37
2019-02-06T02:38:14.429Z,8.67
2019-02-06T02:40:46.071Z,8.37
2019-02-06T02:43:17.661Z,8.33
2019-02-06T02:45:49.301Z,9.43
2019-02-06T02:48:20.895Z,8.07
2019-02-06T02:50:52.549Z,8.33
2019-02-06T02:53:24.177Z,8.73
2019-02-06T02:55:55.918Z,8.83
2019-02-06T02:58:27.509Z,10.50
2019-02-06T03:01:01.807Z,8.20
2019-02-06T03:03:35.081Z,8.13
2019-02-06T03:06:06.696Z,7.63
2019-02-06T03:08:38.456Z,8.27
2019-02-06T03:11:10.027Z,8.77
2019-02-06T03:13:41.634Z,8.77
2019-02-06T03:16:13.657Z,10.63
2019-02-06T03:18:45.384Z,8.67
2019-02-06T03:21:16.983Z,8.90
2019-02-06T03:23:48.553Z,7.93
2019-02-06T03:26:21.216Z,8.83
2019-02-06T03:28:52.952Z,8.73
2019-02-06T03:31:24.695Z,9.33
2019-02-06T03:33:56.290Z,8.80
2019-02-06T03:36:39.601Z,7.83
2019-02-06T03:39:01.249Z,9.90
2019-02-06T03:41:33.102Z,9.03
2019-02-06T03:44:05.026Z,9.70
2019-02-06T03:46:36.622Z,8.20
2019-02-06T03:49:08.313Z,9.20
2019-02-06T03:51:39.980Z,8.77
2019-02-06T03:54:11.646Z,7.77
2019-02-06T03:56:43.317Z,9.07
2019-02-06T03:59:14.971Z,9.60
2019-02-06T04:01:47.044Z,8.03
2019-02-06T04:04:18.665Z,9.77
2019-02-06T04:06:55.042Z,9.00
2019-02-06T04:09:23.661Z,8.60
2019-02-06T04:11:55.283Z,9.57
2019-02-06T04:14:26.861Z,9.03
2019-02-06T04:16:58.449Z,8.73
2019-02-06T04:19:30.030Z,8.57
2019-02-06T04:22:01.617Z,8.83
2019-02-06T04:24:33.195Z,9.70
2019-02-06T04:27:04.789Z,9.40
2019-02-06T04:29:36.489Z,10.07
2019-02-06T04:32:08.070Z,9.93
2019-02-06T04:34:39.696Z,10.03
2019-02-06T04:37:23.807Z,11.50
2019-02-06T04:39:55.464Z,9.37
2019-02-06T04:42:27.133Z,8.60
2019-02-06T04:44:58.797Z,10.20
2019-02-06T04:47:30.735Z,8.20
2019-02-06T04:50:03.155Z,9.20
2019-02-06T04:52:34.930Z,8.70
2019-02-06T04:55:10.244Z,7.93
2019-02-06T04:57:41.970Z,10.00
2019-02-06T05:00:26.359Z,9.47
2019-02-06T05:02:58.022Z,9.83
2019-02-06T05:05:30.079Z,9.67
2019-02-06T05:08:01.678Z,10.20
2019-02-06T05:10:33.602Z,10.13
2019-02-06T05:13:05.187Z,9.97
2019-02-06T05:15:36.846Z,9.17
2019-02-06T05:18:08.540Z,10.03
2019-02-06T05:20:40.374Z,10.07
2019-02-06T05:23:12.236Z,9.80
2019-02-06T05:25:43.861Z,10.17
2019-02-06T05:28:17.995Z,12.10
2019-02-06T05:30:48.760Z,9.30
2019-02-06T05:33:20.439Z,8.90
2019-02-06T05:35:52.409Z,10.20
2019-02-06T05:38:24.097Z,10.10
2019-02-06T05:40:55.700Z,9.80
2019-02-06T05:43:27.291Z,9.90
2019-02-06T05:45:58.876Z,10.37
2019-02-06T05:48:30.482Z,9.37
2019-02-06T05:51:02.218Z,10.33
2019-02-06T05:53:33.880Z,10.33
2019-02-06T05:56:05.479Z,10.27
2019-02-06T05:58:37.148Z,11.87
2019-02-06T06:01:08.921Z,9.17
2019-02-06T06:03:41.591Z,10.50
2019-02-06T06:06:13.278Z,8.87
2019-02-06T06:08:44.912Z,10.80
2019-02-06T06:11:16.596Z,11.03
2019-02-06T06:13:48.250Z,9.97
2019-02-06T06:16:20.083Z,11.07
2019-02-06T06:18:51.652Z,9.87
2019-02-06T06:21:23.300Z,11.53
2019-02-06T06:23:54.931Z,10.60
2019-02-06T06:26:26.653Z,8.77
2019-02-06T06:28:58.694Z,8.90
2019-02-06T06:31:30.282Z,9.90
2019-02-06T06:34:02.252Z,8.47
2019-02-06T06:36:33.873Z,9.33
2019-02-06T06:39:07.821Z,9.93
2019-02-06T06:41:39.959Z,8.87
2019-02-06T06:44:11.597Z,10.47
2019-02-06T06:46:43.261Z,8.83
2019-02-06T06:49:14.871Z,9.70
2019-02-06T06:51:47.065Z,8.57
2019-02-06T06:54:19.081Z,9.83
2019-02-06T06:56:50.753Z,9.67
2019-02-06T06:59:22.400Z,9.80
2019-02-06T07:01:54.044Z,9.53
2019-02-06T07:04:25.790Z,9.73
2019-02-06T07:06:58.167Z,9.47
2019-02-06T07:09:29.777Z,10.77
2019-02-06T07:12:01.411Z,9.77
2019-02-06T07:14:33.264Z,9.33
2019-02-06T07:17:04.931Z,9.43
2019-02-06T07:19:37.037Z,9.53
2019-02-06T07:22:08.637Z,11.03
2019-02-06T07:24:40.536Z,11.63
2019-02-06T07:27:14.137Z,11.30
2019-02-06T07:29:45.808Z,10.60
2019-02-06T07:32:17.865Z,12.07
2019-02-06T07:34:51.506Z,11.27
2019-02-06T07:37:23.253Z,10.53
2019-02-06T07:39:54.992Z,11.13
2019-02-06T07:42:26.668Z,11.67
2019-02-06T07:44:58.564Z,8.97
2019-02-06T07:47:30.220Z,9.67
2019-02-06T07:50:02.250Z,10.83
2019-02-06T07:52:33.983Z,9.87
2019-02-06T07:55:06.927Z,11.07
2019-02-06T07:57:38.875Z,9.47
2019-02-06T08:00:10.539Z,9.87
2019-02-06T08:02:42.340Z,9.13
2019-02-06T08:05:17.934Z,11.63
2019-02-06T08:07:50.560Z,9.33
2019-02-06T08:10:32.662Z,10.00
2019-02-06T08:13:05.084Z,11.50
2019-02-06T08:15:36.659Z,10.70
2019-02-06T08:18:08.320Z,10.53
2019-02-06T08:20:40.370Z,11.73
2019-02-06T08:23:12.452Z,13.70
2019-02-06T08:25:44.249Z,11.53
2019-02-06T08:28:15.841Z,11.67
2019-02-06T08:30:47.442Z,13.10
2019-02-06T08:33:19.446Z,12.57
2019-02-06T08:35:51.088Z,11.83
2019-02-06T08:38:23.142Z,12.53
2019-02-06T08:40:54.795Z,12.40
2019-02-06T08:43:26.593Z,12.67
2019-02-06T08:45:58.426Z,12.70
2019-02-06T08:48:30.102Z,12.07
2019-02-06T08:51:01.765Z,12.43
2019-02-06T08:53:33.897Z,13.17
2019-02-06T08:56:06.455Z,11.57
2019-02-06T08:58:38.409Z,12.80
2019-02-06T09:01:10.053Z,9.97
2019-02-06T09:03:41.714Z,11.67
2019-02-06T09:06:13.711Z,12.37
2019-02-06T09:08:46.395Z,11.03
2019-02-06T09:11:18.341Z,11.03
2019-02-06T09:13:50.078Z,10.73
2019-02-06T09:16:22.719Z,12.47
2019-02-06T09:18:54.454Z,13.80
2019-02-06T09:21:26.160Z,13.27
2019-02-06T09:23:58.600Z,11.60
2019-02-06T09:26:33.976Z,12.60
2019-02-06T09:29:05.590Z,12.70
2019-02-06T09:31:38.369Z,13.17
2019-02-06T09:34:11.045Z,10.07
2019-02-06T09:36:42.719Z,10.60
2019-02-06T09:39:14.381Z,10.93
2019-02-06T09:41:46.023Z,9.80
2019-02-06T09:44:19.221Z,9.97
2019-02-06T09:46:50.832Z,9.20
2019-02-06T09:49:22.500Z,9.83
2019-02-06T09:51:54.122Z,8.67
2019-02-06T09:54:25.773Z,11.30
2019-02-06T09:56:57.435Z,8.73
2019-02-06T09:59:29.582Z,10.50
2019-02-06T10:02:01.286Z,10.30
2019-02-06T10:04:34.539Z,10.50
2019-02-06T10:07:06.136Z,8.83
2019-02-06T10:09:37.778Z,8.77
2019-02-06T10:12:11.882Z,10.00
2019-02-06T10:14:42.767Z,9.00
2019-02-06T10:17:14.423Z,9.83
2019-02-06T10:19:46.282Z,10.13
2019-02-06T10:22:18.008Z,9.83
2019-02-06T10:24:49.659Z,8.73
2019-02-06T10:27:23.996Z,8.53
2019-02-06T10:29:55.278Z,8.93
2019-02-06T10:32:26.903Z,10.43
2019-02-06T10:34:58.559Z,9.27
2019-02-06T10:37:30.204Z,7.00
2019-02-06T10:40:01.774Z,7.47
2019-02-06T10:42:33.936Z,8.53
2019-02-06T10:45:20.921Z,9.07
2019-02-06T10:47:51.420Z,13.17
2019-02-06T10:50:43.065Z,10.00
2019-02-06T10:53:14.727Z,10.37
2019-02-06T10:55:46.610Z,7.40
2019-02-06T10:58:18.385Z,8.03
2019-02-06T11:00:55.935Z,8.67
2019-02-06T11:03:27.562Z,8.13
2019-02-06T11:05:59.236Z,9.03
2019-02-06T11:08:30.842Z,9.17
2019-02-06T11:11:02.777Z,8.27
2019-02-06T11:13:34.427Z,8.50
2019-02-06T11:16:06.282Z,8.73
2019-02-06T11:18:37.875Z,8.47
2019-02-06T11:21:09.555Z,6.67
2019-02-06T11:23:41.537Z,7.67
2019-02-06T11:26:13.252Z,7.23
2019-02-06T11:28:44.844Z,7.97
2019-02-06T11:31:16.528Z,6.73
2019-02-06T11:33:48.117Z,8.30
2019-02-06T11:36:24.273Z,7.27
2019-02-06T11:38:53.526Z,8.10
2019-02-06T11:41:25.204Z,8.67
2019-02-06T11:43:56.781Z,8.60
2019-02-06T11:46:28.455Z,8.80
2019-02-06T11:49:00.399Z,8.37
2019-02-06T11:51:32.058Z,8.57
2019-02-06T11:54:03.659Z,10.43
2019-02-06T11:56:35.258Z,11.07
2019-02-06T11:59:06.928Z,10.17
2019-02-06T12:01:39.905Z,9.50
2019-02-06T12:04:11.545Z,8.70
2019-02-06T12:06:43.223Z,8.03
2019-02-06T12:09:14.858Z,9.07
2019-02-06T12:11:46.539Z,12.23
2019-02-06T12:14:18.415Z,8.47
2019-02-06T12:16:50.591Z,10.87
2019-02-06T12:19:22.200Z,10.73
2019-02-06T12:21:53.800Z,12.57
2019-02-06T12:24:25.456Z,10.97
2019-02-06T12:26:57.498Z,11.27
2019-02-06T12:29:29.075Z,15.07
2019-02-06T12:32:01.249Z,12.00
2019-02-06T12:34:33.816Z,10.07
2019-02-06T12:37:05.576Z,9.87
2019-02-06T12:39:37.415Z,11.17
2019-02-06T12:42:09.188Z,10.33
2019-02-06T12:44:41.030Z,12.30
2019-02-06T12:47:13.241Z,11.13
2019-02-06T12:49:44.896Z,11.23
2019-02-06T12:52:16.507Z,11.83
2019-02-06T12:54:48.235Z,10.97
2019-02-06T12:57:19.823Z,12.60
2019-02-06T12:59:51.688Z,9.93
2019-02-06T13:02:23.416Z,11.67
2019-02-06T13:04:55.580Z,10.73
2019-02-06T13:07:27.286Z,10.60
2019-02-06T13:09:59.014Z,11.17
2019-02-06T13:12:30.746Z,11.53
2019-02-06T13:15:02.513Z,9.73
2019-02-06T13:17:34.258Z,10.40
2019-02-06T13:20:13.380Z,11.07
2019-02-06T13:22:45.034Z,10.37
2019-02-06T13:25:16.659Z,11.53
2019-02-06T13:27:48.397Z,10.43
2019-02-06T13:30:31.405Z,8.77
2019-02-06T13:33:03.123Z,11.60
2019-02-06T13:35:34.730Z,11.10
2019-02-06T13:38:06.613Z,11.30
2019-02-06T13:40:45.478Z,12.63
2019-02-06T13:43:11.609Z,13.77
2019-02-06T13:45:46.990Z,12.97
2019-02-06T13:48:19.647Z,11.47
2019-02-06T13:50:51.242Z,11.87
2019-02-06T13:53:22.840Z,13.30
2019-02-06T13:55:54.902Z,11.33
2019-02-06T13:58:26.584Z,13.10
2019-02-06T14:00:58.230Z,12.17
2019-02-06T14:03:30.504Z,14.47
2019-02-06T14:06:02.109Z,13.10
2019-02-06T14:08:34.056Z,14.10
2019-02-06T14:11:05.693Z,14.03
2019-02-06T14:13:37.288Z,14.63
2019-02-06T14:16:08.968Z,14.23
2019-02-06T14:18:40.635Z,12.97
2019-02-06T14:21:12.658Z,12.77
2019-02-06T14:23:49.143Z,12.93
2019-02-06T14:26:40.468Z,13.60
2019-02-06T14:29:29.291Z,12.20
2019-02-06T14:32:15.720Z,12.70
2019-02-06T14:35:11.348Z,11.10
2019-02-06T14:38:04.715Z,12.57
2019-02-06T14:41:08.678Z,12.80
2019-02-06T14:44:00.515Z,13.57
2019-02-06T14:47:11.378Z,12.43
2019-02-06T14:50:18.204Z,14.13
2019-02-06T14:53:06.511Z,11.93
2019-02-06T14:55:55.164Z,11.73
2019-02-06T14:58:47.031Z,13.50
2019-02-06T15:01:48.574Z,12.43
2019-02-06T15:04:40.241Z,14.07
2019-02-06T15:07:32.269Z,11.27
2019-02-06T15:10:20.714Z,13.30
2019-02-06T15:13:12.894Z,13.03
2019-02-06T15:16:18.574Z,12.80
2019-02-06T15:18:57.952Z,14.53
2019-02-06T15:21:58.128Z,13.37
2019-02-06T15:24:34.613Z,14.50
2019-02-06T15:27:32.634Z,12.77
2019-02-06T15:30:20.910Z,12.53
2019-02-06T15:33:29.525Z,13.03
2019-02-06T15:36:42.045Z,13.93
2019-02-06T15:39:24.101Z,14.13
2019-02-06T15:42:06.384Z,13.10
2019-02-06T15:45:21.037Z,13.73
2019-02-06T15:48:21.385Z,13.73
2019-02-06T15:51:17.729Z,13.93
2019-02-06T15:54:16.340Z,15.13
2019-02-06T15:57:18.966Z,15.17
2019-02-06T16:00:27.656Z,14.87
2019-02-06T16:03:29.950Z,13.63
2019-02-06T16:06:23.518Z,12.50
2019-02-06T16:09:29.810Z,13.80
2019-02-06T16:12:20.656Z,13.40
2019-02-06T16:15:12.077Z,14.87
2019-02-06T16:18:05.484Z,15.13
2019-02-06T16:21:03.343Z,14.40
2019-02-06T16:24:00.957Z,12.90
2019-02-06T16:26:54.255Z,13.73
2019-02-06T16:30:00.249Z,13.37
2019-02-06T16:32:58.309Z,12.77
2019-02-06T16:36:07.943Z,13.17
2019-02-06T16:38:53.142Z,13.73
2019-02-06T16:41:54.798Z,13.47
2019-02-06T16:44:47.733Z,15.63
2019-02-06T16:47:51.268Z,15.93
2019-02-06T16:50:47.516Z,14.27
2019-02-06T16:53:46.784Z,14.60
2019-02-06T16:56:47.458Z,13.57
2019-02-06T16:59:33.415Z,17.27
2019-02-06T17:02:27.613Z,12.57
2019-02-06T17:05:38.951Z,14.70
2019-02-06T17:08:38.564Z,24.30
2019-02-06T17:11:31.485Z,19.67
2019-02-06T17:14:35.421Z,14.53
2019-02-06T17:17:35.712Z,17.30
2019-02-06T17:20:30.341Z,18.47
2019-02-06T17:23:15.463Z,18.47
2019-02-06T17:26:10.163Z,18.10
2019-02-06T17:29:30.364Z,18.13
2019-02-06T17:32:24.768Z,17.57
2019-02-06T17:35:13.162Z,17.27
2019-02-06T17:38:19.916Z,18.83
2019-02-06T17:41:08.254Z,21.70
2019-02-06T17:44:09.201Z,18.47
2019-02-06T17:47:17.045Z,18.80
2019-02-06T17:50:02.485Z,16.03
2019-02-06T17:53:04.454Z,16.10
2019-02-06T17:55:36.075Z,16.03
2019-02-06T17:58:08.061Z,14.37
2019-02-06T18:00:50.143Z,15.27
2019-02-06T18:03:22.474Z,18.20
2019-02-06T18:05:54.406Z,15.57
2019-02-06T18:08:26.024Z,14.07
2019-02-06T18:10:58.820Z,16.57
2019-02-06T18:13:30.614Z,16.07
2019-02-06T18:16:02.270Z,14.27
2019-02-06T18:18:34.390Z,13.90
2019-02-06T18:21:06.080Z,15.17
2019-02-06T18:23:37.958Z,15.80
2019-02-06T18:26:09.605Z,15.77
2019-02-06T18:28:41.265Z,15.07
2019-02-06T18:31:13.322Z,15.73
2019-02-06T18:33:45.451Z,16.17
2019-02-06T18:36:17.109Z,16.93
2019-02-06T18:38:49.575Z,15.73
2019-02-06T18:41:21.246Z,17.63
2019-02-06T18:43:53.203Z,17.03
2019-02-06T18:46:24.894Z,19.50
2019-02-06T18:48:56.955Z,16.97
2019-02-06T18:51:28.623Z,19.30
2019-02-06T18:54:00.238Z,20.40
2019-02-06T18:56:31.972Z,18.37
2019-02-06T18:59:03.691Z,18.10
2019-02-06T19:01:36.046Z,19.90
2019-02-06T19:04:11.229Z,19.87
2019-02-06T19:06:43.187Z,20.37
2019-02-06T19:09:15.106Z,16.37
2019-02-06T19:11:47.075Z,19.73
2019-02-06T19:14:19.253Z,19.40
2019-02-06T19:16:51.222Z,19.00
2019-02-06T19:19:25.397Z,20.07
2019-02-06T19:21:56.850Z,20.43
2019-02-06T19:24:28.735Z,21.37
2019-02-06T19:27:00.404Z,21.50
2019-02-06T19:29:32.168Z,21.00
2019-02-06T19:32:03.830Z,20.50
2019-02-06T19:34:38.578Z,20.67
2019-02-06T19:37:10.182Z,21.53
2019-02-06T19:39:41.883Z,20.27
2019-02-06T19:42:13.897Z,20.90
2019-02-06T19:44:45.923Z,21.57
2019-02-06T19:47:20.502Z,17.30
2019-02-06T19:49:52.126Z,20.70
2019-02-06T19:52:23.901Z,21.27
2019-02-06T19:54:55.893Z,23.97
2019-02-06T19:57:27.522Z,23.83
2019-02-06T19:59:59.218Z,24.97
2019-02-06T20:02:30.808Z,21.57
2019-02-06T20:05:02.482Z,22.10
2019-02-06T20:07:34.334Z,22.97
2019-02-06T20:10:13.990Z,20.83
2019-02-06T20:12:45.886Z,20.77
2019-02-06T20:15:17.822Z,23.40
2019-02-06T20:17:49.519Z,17.83
2019-02-06T20:20:26.992Z,21.33
2019-02-06T20:22:58.894Z,21.63
2019-02-06T20:25:31.041Z,19.43
2019-02-06T20:28:02.697Z,22.13
2019-02-06T20:30:34.513Z,23.07
2019-02-06T20:33:06.218Z,22.67
2019-02-06T20:35:38.238Z,20.63
2019-02-06T20:38:09.951Z,22.63
2019-02-06T20:40:44.610Z,23.90
2019-02-06T20:43:22.271Z,23.80
2019-02-06T20:45:49.991Z,25.93
2019-02-06T20:48:21.938Z,24.57
2019-02-06T20:50:53.872Z,24.27
2019-02-06T20:53:25.985Z,23.33
2019-02-06T20:55:57.673Z,22.13
2019-02-06T20:58:29.461Z,18.77
2019-02-06T21:01:01.484Z,22.87
2019-02-06T21:03:33.730Z,22.20
2019-02-06T21:06:05.535Z,23.03
2019-02-06T21:08:37.796Z,22.13
2019-02-06T21:11:09.417Z,22.93
2019-02-06T21:13:41.144Z,24.93
2019-02-06T21:16:12.809Z,21.73
2019-02-06T21:18:46.115Z,21.50
2019-02-06T21:21:17.889Z,21.80
2019-02-06T21:23:49.987Z,22.50
2019-02-06T21:26:21.589Z,21.80
2019-02-06T21:28:53.228Z,20.97
2019-02-06T21:31:24.878Z,23.57
2019-02-06T21:33:56.566Z,24.47
2019-02-06T21:36:28.161Z,22.63
2019-02-06T21:39:00.080Z,22.43
2019-02-06T21:41:32.048Z,22.00
2019-02-06T21:44:03.776Z,20.07
2019-02-06T21:46:35.478Z,22.33
2019-02-06T21:49:07.151Z,20.90
2019-02-06T21:51:39.532Z,21.47
2019-02-06T21:54:11.780Z,19.83
2019-02-06T21:56:43.426Z,23.10
2019-02-06T21:59:15.031Z,23.87
2019-02-06T22:01:46.602Z,24.43
2019-02-06T22:04:18.206Z,24.33
2019-02-06T22:06:49.879Z,19.40
2019-02-06T22:09:21.676Z,23.57
2019-02-06T22:11:53.275Z,21.53
2019-02-06T22:14:24.848Z,20.80
2019-02-06T22:16:56.456Z,21.67
2019-02-06T22:19:28.054Z,23.30
2019-02-06T22:21:59.963Z,23.23
2019-02-06T22:24:31.782Z,23.53
2019-02-06T22:27:03.430Z,22.40
2019-02-06T22:29:35.154Z,22.97
2019-02-06T22:32:06.817Z,22.40
2019-02-06T22:34:38.425Z,22.63
2019-02-06T22:37:10.279Z,21.60
2019-02-06T22:39:41.840Z,20.40
2019-02-06T22:42:14.081Z,21.57
2019-02-06T22:44:45.749Z,23.60
2019-02-06T22:47:17.405Z,25.20
2019-02-06T22:49:49.132Z,23.23
2019-02-06T22:52:22.922Z,21.00
2019-02-06T22:54:54.387Z,22.87
2019-02-06T22:57:26.147Z,20.10
2019-02-06T22:59:57.815Z,22.03
2019-02-06T23:02:29.537Z,23.87
2019-02-06T23:05:01.356Z,22.47
2019-02-06T23:07:33.733Z,23.23
2019-02-06T23:10:06.740Z,22.77
2019-02-06T23:12:38.937Z,22.57
2019-02-06T23:15:11.136Z,22.20
2019-02-06T23:17:42.801Z,23.17
2019-02-06T23:20:16.302Z,22.13
2019-02-06T23:22:48.253Z,21.50
2019-02-06T23:25:20.522Z,20.97
2019-02-06T23:27:52.291Z,24.23
2019-02-06T23:30:23.894Z,21.10
2019-02-06T23:32:55.553Z,20.67
2019-02-06T23:35:27.143Z,18.53
2019-02-06T23:37:58.816Z,23.23
2019-02-06T23:40:31.922Z,21.43
2019-02-06T23:43:03.584Z,22.93
2019-02-06T23:45:35.257Z,23.87
2019-02-06T23:48:06.914Z,21.20
2019-02-06T23:50:38.654Z,21.80
2019-02-06T23:53:10.475Z,22.33
2019-02-06T23:55:42.041Z,23.73
2019-02-06T23:58:14.208Z,22.73
